sensor_id;sensor_type;location;lat;lon;timestamp;P1;durP1;ratioP1;P2;durP2;ratioP2
6251;SDS011;3159;52.414;9.784;2022-09-20T00:00:40;4.63;;;1.60;;
6251;SDS011;3159;52.414;9.784;2022-09-20T00:03:09;6.50;;;2.30;;
6251;SDS011;3159;52.414;9.784;2022-09-20T00:05:37;8.47;;;2.10;;
6251;SDS011;3159;52.414;9.784;2022-09-20T00:08:07;8.70;;;1.90;;
6251;SDS011;3159;52.414;9.784;2022-09-20T00:10:37;6.63;;;1.60;;
6251;SDS011;3159;52.414;9.784;2022-09-20T00:13:05;8.57;;;1.50;;
6251;SDS011;3159;52.414;9.784;2022-09-20T00:15:33;9.33;;;2.07;;
6251;SDS011;3159;52.414;9.784;2022-09-20T00:18:06;10.33;;;1.80;;
6251;SDS011;3159;52.414;9.784;2022-09-20T00:20:33;7.13;;;1.70;;
6251;SDS011;3159;52.414;9.784;2022-09-20T00:23:00;6.40;;;1.73;;
6251;SDS011;3159;52.414;9.784;2022-09-20T00:25:28;5.47;;;1.80;;
6251;SDS011;3159;52.414;9.784;2022-09-20T00:27:55;5.00;;;1.50;;
6251;SDS011;3159;52.414;9.784;2022-09-20T00:30:22;9.47;;;1.80;;
6251;SDS011;3159;52.414;9.784;2022-09-20T00:32:49;6.90;;;2.00;;
6251;SDS011;3159;52.414;9.784;2022-09-20T00:35:16;6.70;;;1.80;;
6251;SDS011;3159;52.414;9.784;2022-09-20T00:37:42;6.63;;;1.83;;
6251;SDS011;3159;52.414;9.784;2022-09-20T00:40:12;7.13;;;2.00;;
6251;SDS011;3159;52.414;9.784;2022-09-20T00:42:41;8.13;;;1.80;;
6251;SDS011;3159;52.414;9.784;2022-09-20T00:45:11;4.23;;;1.50;;
6251;SDS011;3159;52.414;9.784;2022-09-20T00:47:46;7.30;;;2.00;;
6251;SDS011;3159;52.414;9.784;2022-09-20T00:50:21;6.03;;;2.00;;
6251;SDS011;3159;52.414;9.784;2022-09-20T00:52:55;6.10;;;1.57;;
6251;SDS011;3159;52.414;9.784;2022-09-20T00:55:24;5.77;;;1.87;;
6251;SDS011;3159;52.414;9.784;2022-09-20T00:57:54;5.63;;;1.67;;
6251;SDS011;3159;52.414;9.784;2022-09-20T01:00:21;6.53;;;1.90;;
6251;SDS011;3159;52.414;9.784;2022-09-20T01:02:49;5.07;;;1.70;;
6251;SDS011;3159;52.414;9.784;2022-09-20T01:05:21;5.43;;;1.50;;
6251;SDS011;3159;52.414;9.784;2022-09-20T01:07:48;7.37;;;1.80;;
6251;SDS011;3159;52.414;9.784;2022-09-20T01:10:16;5.47;;;1.63;;
6251;SDS011;3159;52.414;9.784;2022-09-20T01:12:43;4.60;;;1.63;;
6251;SDS011;3159;52.414;9.784;2022-09-20T01:15:13;4.47;;;1.57;;
6251;SDS011;3159;52.414;9.784;2022-09-20T01:17:42;5.67;;;1.53;;
6251;SDS011;3159;52.414;9.784;2022-09-20T01:20:13;8.53;;;2.10;;
6251;SDS011;3159;52.414;9.784;2022-09-20T01:22:47;6.67;;;1.80;;
6251;SDS011;3159;52.414;9.784;2022-09-20T01:25:29;9.73;;;2.00;;
6251;SDS011;3159;52.414;9.784;2022-09-20T01:28:22;6.17;;;1.77;;
6251;SDS011;3159;52.414;9.784;2022-09-20T01:30:51;4.30;;;1.40;;
6251;SDS011;3159;52.414;9.784;2022-09-20T01:33:27;6.10;;;1.50;;
6251;SDS011;3159;52.414;9.784;2022-09-20T01:35:59;7.17;;;1.80;;
6251;SDS011;3159;52.414;9.784;2022-09-20T01:38:32;7.90;;;1.97;;
6251;SDS011;3159;52.414;9.784;2022-09-20T01:41:07;9.13;;;2.20;;
6251;SDS011;3159;52.414;9.784;2022-09-20T01:43:39;4.07;;;1.33;;
6251;SDS011;3159;52.414;9.784;2022-09-20T01:46:17;7.07;;;2.27;;
6251;SDS011;3159;52.414;9.784;2022-09-20T01:48:55;6.73;;;2.23;;
6251;SDS011;3159;52.414;9.784;2022-09-20T01:58:14;3.30;;;1.70;;
6251;SDS011;3159;52.414;9.784;2022-09-20T02:01:20;11.27;;;2.33;;
6251;SDS011;3159;52.414;9.784;2022-09-20T02:07:13;8.37;;;2.23;;
6251;SDS011;3159;52.414;9.784;2022-09-20T02:10:09;8.13;;;2.23;;
6251;SDS011;3159;52.414;9.784;2022-09-20T02:12:53;7.67;;;2.33;;
6251;SDS011;3159;52.414;9.784;2022-09-20T02:15:43;6.63;;;1.80;;
6251;SDS011;3159;52.414;9.784;2022-09-20T02:18:34;4.50;;;2.07;;
6251;SDS011;3159;52.414;9.784;2022-09-20T02:21:14;8.43;;;2.10;;
6251;SDS011;3159;52.414;9.784;2022-09-20T02:23:56;9.00;;;2.60;;
6251;SDS011;3159;52.414;9.784;2022-09-20T02:26:35;8.10;;;2.27;;
6251;SDS011;3159;52.414;9.784;2022-09-20T02:29:14;7.40;;;1.90;;
6251;SDS011;3159;52.414;9.784;2022-09-20T02:32:07;8.77;;;2.40;;
6251;SDS011;3159;52.414;9.784;2022-09-20T02:34:57;5.13;;;1.57;;
6251;SDS011;3159;52.414;9.784;2022-09-20T02:37:44;10.37;;;2.37;;
6251;SDS011;3159;52.414;9.784;2022-09-20T02:40:30;7.57;;;2.27;;
6251;SDS011;3159;52.414;9.784;2022-09-20T02:43:13;10.03;;;1.97;;
6251;SDS011;3159;52.414;9.784;2022-09-20T02:45:49;7.93;;;2.23;;
6251;SDS011;3159;52.414;9.784;2022-09-20T02:48:26;6.57;;;2.67;;
6251;SDS011;3159;52.414;9.784;2022-09-20T02:51:03;7.77;;;2.90;;
6251;SDS011;3159;52.414;9.784;2022-09-20T02:53:38;8.93;;;2.83;;
6251;SDS011;3159;52.414;9.784;2022-09-20T02:56:12;6.90;;;3.10;;
6251;SDS011;3159;52.414;9.784;2022-09-20T02:58:46;6.63;;;2.30;;
6251;SDS011;3159;52.414;9.784;2022-09-20T03:01:20;7.67;;;3.07;;
6251;SDS011;3159;52.414;9.784;2022-09-20T03:04:01;8.40;;;2.97;;
6251;SDS011;3159;52.414;9.784;2022-09-20T03:06:38;9.37;;;2.97;;
6251;SDS011;3159;52.414;9.784;2022-09-20T03:09:13;9.80;;;2.50;;
6251;SDS011;3159;52.414;9.784;2022-09-20T03:11:50;5.57;;;2.20;;
6251;SDS011;3159;52.414;9.784;2022-09-20T03:14:28;8.23;;;2.97;;
6251;SDS011;3159;52.414;9.784;2022-09-20T03:17:03;7.87;;;2.83;;
6251;SDS011;3159;52.414;9.784;2022-09-20T03:19:45;7.67;;;2.87;;
6251;SDS011;3159;52.414;9.784;2022-09-20T03:22:27;10.70;;;3.13;;
6251;SDS011;3159;52.414;9.784;2022-09-20T03:25:09;7.47;;;3.40;;
6251;SDS011;3159;52.414;9.784;2022-09-20T03:27:57;7.33;;;3.10;;
6251;SDS011;3159;52.414;9.784;2022-09-20T03:30:43;10.67;;;3.63;;
6251;SDS011;3159;52.414;9.784;2022-09-20T03:33:19;8.30;;;3.40;;
6251;SDS011;3159;52.414;9.784;2022-09-20T03:35:59;8.33;;;3.60;;
6251;SDS011;3159;52.414;9.784;2022-09-20T03:38:47;8.13;;;3.40;;
6251;SDS011;3159;52.414;9.784;2022-09-20T03:41:31;8.60;;;3.83;;
6251;SDS011;3159;52.414;9.784;2022-09-20T03:44:30;6.83;;;3.73;;
6251;SDS011;3159;52.414;9.784;2022-09-20T03:47:13;5.57;;;2.90;;
6251;SDS011;3159;52.414;9.784;2022-09-20T03:50:03;8.70;;;3.73;;
6251;SDS011;3159;52.414;9.784;2022-09-20T03:52:52;11.80;;;3.23;;
6251;SDS011;3159;52.414;9.784;2022-09-20T03:55:31;9.60;;;3.37;;
6251;SDS011;3159;52.414;9.784;2022-09-20T03:58:15;7.20;;;3.87;;
6251;SDS011;3159;52.414;9.784;2022-09-20T04:00:57;7.07;;;4.00;;
6251;SDS011;3159;52.414;9.784;2022-09-20T04:03:39;9.43;;;3.90;;
6251;SDS011;3159;52.414;9.784;2022-09-20T04:06:20;11.80;;;4.97;;
6251;SDS011;3159;52.414;9.784;2022-09-20T04:09:07;9.80;;;4.30;;
6251;SDS011;3159;52.414;9.784;2022-09-20T04:11:49;6.57;;;4.13;;
6251;SDS011;3159;52.414;9.784;2022-09-20T04:14:24;11.43;;;4.17;;
6251;SDS011;3159;52.414;9.784;2022-09-20T04:16:59;8.63;;;3.90;;
6251;SDS011;3159;52.414;9.784;2022-09-20T04:19:37;6.57;;;4.50;;
6251;SDS011;3159;52.414;9.784;2022-09-20T04:22:09;6.57;;;4.17;;
6251;SDS011;3159;52.414;9.784;2022-09-20T04:24:39;9.70;;;4.33;;
6251;SDS011;3159;52.414;9.784;2022-09-20T04:27:11;9.87;;;4.43;;
6251;SDS011;3159;52.414;9.784;2022-09-20T04:29:41;6.17;;;4.07;;
6251;SDS011;3159;52.414;9.784;2022-09-20T04:32:16;6.07;;;3.80;;
6251;SDS011;3159;52.414;9.784;2022-09-20T04:34:50;9.70;;;4.70;;
6251;SDS011;3159;52.414;9.784;2022-09-20T04:37:42;11.93;;;4.77;;
6251;SDS011;3159;52.414;9.784;2022-09-20T04:40:16;9.10;;;4.30;;
6251;SDS011;3159;52.414;9.784;2022-09-20T04:51:52;9.03;;;5.77;;
6251;SDS011;3159;52.414;9.784;2022-09-20T04:57:58;11.53;;;6.20;;
6251;SDS011;3159;52.414;9.784;2022-09-20T05:01:11;7.87;;;6.13;;
6251;SDS011;3159;52.414;9.784;2022-09-20T05:04:05;14.13;;;6.43;;
6251;SDS011;3159;52.414;9.784;2022-09-20T05:07:02;11.33;;;5.97;;
6251;SDS011;3159;52.414;9.784;2022-09-20T05:10:02;8.83;;;6.00;;
6251;SDS011;3159;52.414;9.784;2022-09-20T05:12:57;9.27;;;6.53;;
6251;SDS011;3159;52.414;9.784;2022-09-20T05:15:40;10.00;;;6.00;;
6251;SDS011;3159;52.414;9.784;2022-09-20T05:21:22;9.57;;;6.20;;
6251;SDS011;3159;52.414;9.784;2022-09-20T05:24:06;11.57;;;6.20;;
6251;SDS011;3159;52.414;9.784;2022-09-20T05:26:48;8.70;;;5.97;;
6251;SDS011;3159;52.414;9.784;2022-09-20T05:29:30;9.73;;;6.40;;
6251;SDS011;3159;52.414;9.784;2022-09-20T05:32:05;9.37;;;5.77;;
6251;SDS011;3159;52.414;9.784;2022-09-20T05:34:38;9.47;;;5.63;;
6251;SDS011;3159;52.414;9.784;2022-09-20T05:37:14;10.27;;;5.70;;
6251;SDS011;3159;52.414;9.784;2022-09-20T05:39:51;9.70;;;5.97;;
6251;SDS011;3159;52.414;9.784;2022-09-20T05:42:29;11.53;;;6.70;;
6251;SDS011;3159;52.414;9.784;2022-09-20T05:45:13;13.67;;;6.40;;
6251;SDS011;3159;52.414;9.784;2022-09-20T05:47:49;8.13;;;5.40;;
6251;SDS011;3159;52.414;9.784;2022-09-20T05:50:27;8.57;;;6.07;;
6251;SDS011;3159;52.414;9.784;2022-09-20T05:53:02;10.20;;;5.00;;
6251;SDS011;3159;52.414;9.784;2022-09-20T05:55:51;9.30;;;5.10;;
6251;SDS011;3159;52.414;9.784;2022-09-20T05:58:36;10.00;;;4.90;;
6251;SDS011;3159;52.414;9.784;2022-09-20T06:01:13;11.47;;;5.63;;
6251;SDS011;3159;52.414;9.784;2022-09-20T06:03:48;11.43;;;5.73;;
6251;SDS011;3159;52.414;9.784;2022-09-20T06:06:20;9.07;;;5.37;;
6251;SDS011;3159;52.414;9.784;2022-09-20T06:09:06;9.90;;;5.30;;
6251;SDS011;3159;52.414;9.784;2022-09-20T06:12:04;9.80;;;5.10;;
6251;SDS011;3159;52.414;9.784;2022-09-20T06:14:42;8.97;;;4.87;;
6251;SDS011;3159;52.414;9.784;2022-09-20T06:17:18;10.80;;;4.90;;
6251;SDS011;3159;52.414;9.784;2022-09-20T06:19:51;9.63;;;4.80;;
6251;SDS011;3159;52.414;9.784;2022-09-20T06:22:30;10.47;;;5.10;;
6251;SDS011;3159;52.414;9.784;2022-09-20T06:25:03;7.67;;;3.83;;
6251;SDS011;3159;52.414;9.784;2022-09-20T06:27:41;9.53;;;4.33;;
6251;SDS011;3159;52.414;9.784;2022-09-20T06:30:12;7.63;;;4.03;;
6251;SDS011;3159;52.414;9.784;2022-09-20T06:32:54;7.63;;;4.53;;
6251;SDS011;3159;52.414;9.784;2022-09-20T06:35:26;11.33;;;4.80;;
6251;SDS011;3159;52.414;9.784;2022-09-20T06:38:04;8.83;;;4.27;;
6251;SDS011;3159;52.414;9.784;2022-09-20T06:41:00;8.97;;;4.27;;
6251;SDS011;3159;52.414;9.784;2022-09-20T06:43:46;9.63;;;5.23;;
6251;SDS011;3159;52.414;9.784;2022-09-20T06:46:14;7.90;;;4.23;;
6251;SDS011;3159;52.414;9.784;2022-09-20T06:48:42;8.87;;;4.40;;
6251;SDS011;3159;52.414;9.784;2022-09-20T06:51:09;11.47;;;4.37;;
6251;SDS011;3159;52.414;9.784;2022-09-20T06:53:36;7.27;;;3.60;;
6251;SDS011;3159;52.414;9.784;2022-09-20T06:56:06;8.20;;;3.73;;
6251;SDS011;3159;52.414;9.784;2022-09-20T06:58:38;9.27;;;3.70;;
6251;SDS011;3159;52.414;9.784;2022-09-20T07:01:05;7.37;;;2.83;;
6251;SDS011;3159;52.414;9.784;2022-09-20T07:03:32;13.30;;;3.20;;
6251;SDS011;3159;52.414;9.784;2022-09-20T07:06:00;7.33;;;2.90;;
6251;SDS011;3159;52.414;9.784;2022-09-20T07:08:28;7.73;;;3.27;;
6251;SDS011;3159;52.414;9.784;2022-09-20T07:10:55;8.23;;;2.87;;
6251;SDS011;3159;52.414;9.784;2022-09-20T07:13:22;10.63;;;2.67;;
6251;SDS011;3159;52.414;9.784;2022-09-20T07:15:49;7.90;;;3.03;;
6251;SDS011;3159;52.414;9.784;2022-09-20T07:18:16;5.03;;;2.20;;
6251;SDS011;3159;52.414;9.784;2022-09-20T07:20:43;7.87;;;2.43;;
6251;SDS011;3159;52.414;9.784;2022-09-20T07:23:11;7.27;;;2.07;;
6251;SDS011;3159;52.414;9.784;2022-09-20T07:25:39;8.77;;;4.57;;
6251;SDS011;3159;52.414;9.784;2022-09-20T07:28:06;6.80;;;3.17;;
6251;SDS011;3159;52.414;9.784;2022-09-20T07:30:33;7.20;;;2.60;;
6251;SDS011;3159;52.414;9.784;2022-09-20T07:33:00;9.40;;;2.23;;
6251;SDS011;3159;52.414;9.784;2022-09-20T07:35:27;6.80;;;2.20;;
6251;SDS011;3159;52.414;9.784;2022-09-20T07:37:57;6.53;;;2.17;;
6251;SDS011;3159;52.414;9.784;2022-09-20T07:40:25;5.77;;;1.73;;
6251;SDS011;3159;52.414;9.784;2022-09-20T07:42:52;6.63;;;1.97;;
6251;SDS011;3159;52.414;9.784;2022-09-20T07:45:21;6.90;;;2.20;;
6251;SDS011;3159;52.414;9.784;2022-09-20T07:47:48;5.87;;;2.17;;
6251;SDS011;3159;52.414;9.784;2022-09-20T07:50:14;9.63;;;1.93;;
6251;SDS011;3159;52.414;9.784;2022-09-20T07:52:43;9.40;;;1.83;;
6251;SDS011;3159;52.414;9.784;2022-09-20T07:55:10;5.73;;;2.13;;
6251;SDS011;3159;52.414;9.784;2022-09-20T07:57:38;9.13;;;2.13;;
6251;SDS011;3159;52.414;9.784;2022-09-20T08:00:06;6.27;;;2.23;;
6251;SDS011;3159;52.414;9.784;2022-09-20T08:02:34;6.77;;;2.17;;
6251;SDS011;3159;52.414;9.784;2022-09-20T08:05:01;7.80;;;2.10;;
6251;SDS011;3159;52.414;9.784;2022-09-20T08:07:29;9.00;;;2.40;;
6251;SDS011;3159;52.414;9.784;2022-09-20T08:09:55;6.03;;;1.80;;
6251;SDS011;3159;52.414;9.784;2022-09-20T08:12:22;3.83;;;1.30;;
6251;SDS011;3159;52.414;9.784;2022-09-20T08:14:51;7.40;;;1.60;;
6251;SDS011;3159;52.414;9.784;2022-09-20T08:17:18;2.97;;;1.50;;
6251;SDS011;3159;52.414;9.784;2022-09-20T08:19:44;7.83;;;1.77;;
6251;SDS011;3159;52.414;9.784;2022-09-20T08:22:11;5.30;;;1.60;;
6251;SDS011;3159;52.414;9.784;2022-09-20T08:24:38;6.40;;;1.57;;
6251;SDS011;3159;52.414;9.784;2022-09-20T08:27:05;7.90;;;3.03;;
6251;SDS011;3159;52.414;9.784;2022-09-20T08:29:33;7.33;;;3.23;;
6251;SDS011;3159;52.414;9.784;2022-09-20T08:32:01;7.73;;;1.80;;
6251;SDS011;3159;52.414;9.784;2022-09-20T08:34:28;4.67;;;1.27;;
6251;SDS011;3159;52.414;9.784;2022-09-20T08:36:55;6.23;;;1.50;;
6251;SDS011;3159;52.414;9.784;2022-09-20T08:39:22;8.10;;;1.43;;
6251;SDS011;3159;52.414;9.784;2022-09-20T08:41:51;5.23;;;1.33;;
6251;SDS011;3159;52.414;9.784;2022-09-20T08:44:22;5.10;;;1.50;;
6251;SDS011;3159;52.414;9.784;2022-09-20T08:46:53;6.03;;;1.80;;
6251;SDS011;3159;52.414;9.784;2022-09-20T08:49:29;4.70;;;1.50;;
6251;SDS011;3159;52.414;9.784;2022-09-20T08:51:56;4.73;;;1.63;;
6251;SDS011;3159;52.414;9.784;2022-09-20T08:54:24;2.87;;;1.23;;
6251;SDS011;3159;52.414;9.784;2022-09-20T08:56:51;5.27;;;1.87;;
6251;SDS011;3159;52.414;9.784;2022-09-20T08:59:19;6.60;;;2.30;;
6251;SDS011;3159;52.414;9.784;2022-09-20T09:01:47;6.03;;;1.80;;
6251;SDS011;3159;52.414;9.784;2022-09-20T09:04:16;3.70;;;1.53;;
6251;SDS011;3159;52.414;9.784;2022-09-20T09:06:46;8.07;;;2.30;;
6251;SDS011;3159;52.414;9.784;2022-09-20T09:09:16;5.97;;;2.23;;
6251;SDS011;3159;52.414;9.784;2022-09-20T09:11:44;6.93;;;1.70;;
6251;SDS011;3159;52.414;9.784;2022-09-20T09:14:22;8.80;;;2.27;;
6251;SDS011;3159;52.414;9.784;2022-09-20T09:17:09;5.60;;;1.50;;
6251;SDS011;3159;52.414;9.784;2022-09-20T09:19:43;6.17;;;1.73;;
6251;SDS011;3159;52.414;9.784;2022-09-20T09:22:21;7.90;;;1.90;;
6251;SDS011;3159;52.414;9.784;2022-09-20T09:25:18;4.53;;;1.63;;
6251;SDS011;3159;52.414;9.784;2022-09-20T09:27:50;6.40;;;1.97;;
6251;SDS011;3159;52.414;9.784;2022-09-20T09:30:22;5.73;;;2.57;;
6251;SDS011;3159;52.414;9.784;2022-09-20T09:32:51;7.87;;;2.93;;
6251;SDS011;3159;52.414;9.784;2022-09-20T09:35:23;7.30;;;2.87;;
6251;SDS011;3159;52.414;9.784;2022-09-20T09:37:55;7.97;;;2.83;;
6251;SDS011;3159;52.414;9.784;2022-09-20T09:40:23;6.63;;;3.17;;
6251;SDS011;3159;52.414;9.784;2022-09-20T09:42:51;6.87;;;2.90;;
6251;SDS011;3159;52.414;9.784;2022-09-20T09:48:16;5.50;;;2.77;;
6251;SDS011;3159;52.414;9.784;2022-09-20T09:50:45;5.23;;;2.63;;
6251;SDS011;3159;52.414;9.784;2022-09-20T09:53:14;8.53;;;2.30;;
6251;SDS011;3159;52.414;9.784;2022-09-20T09:55:46;6.13;;;2.40;;
6251;SDS011;3159;52.414;9.784;2022-09-20T09:58:39;7.87;;;2.27;;
6251;SDS011;3159;52.414;9.784;2022-09-20T10:01:19;4.17;;;1.53;;
6251;SDS011;3159;52.414;9.784;2022-09-20T10:03:56;4.30;;;1.67;;
6251;SDS011;3159;52.414;9.784;2022-09-20T10:06:31;8.13;;;1.93;;
6251;SDS011;3159;52.414;9.784;2022-09-20T10:09:08;3.97;;;1.40;;
6251;SDS011;3159;52.414;9.784;2022-09-20T10:11:49;5.23;;;1.60;;
6251;SDS011;3159;52.414;9.784;2022-09-20T10:14:30;3.43;;;1.17;;
6251;SDS011;3159;52.414;9.784;2022-09-20T10:17:17;4.13;;;1.30;;
6251;SDS011;3159;52.414;9.784;2022-09-20T10:20:00;5.60;;;1.47;;
6251;SDS011;3159;52.414;9.784;2022-09-20T10:22:38;4.00;;;1.30;;
6251;SDS011;3159;52.414;9.784;2022-09-20T10:25:17;3.33;;;1.50;;
6251;SDS011;3159;52.414;9.784;2022-09-20T10:27:54;5.97;;;1.20;;
6251;SDS011;3159;52.414;9.784;2022-09-20T10:30:30;4.57;;;1.17;;
6251;SDS011;3159;52.414;9.784;2022-09-20T10:33:09;5.60;;;1.13;;
6251;SDS011;3159;52.414;9.784;2022-09-20T10:35:50;3.93;;;1.20;;
6251;SDS011;3159;52.414;9.784;2022-09-20T10:38:27;3.40;;;1.17;;
6251;SDS011;3159;52.414;9.784;2022-09-20T10:41:08;3.73;;;0.77;;
6251;SDS011;3159;52.414;9.784;2022-09-20T10:44:11;7.93;;;1.13;;
6251;SDS011;3159;52.414;9.784;2022-09-20T10:46:52;2.10;;;0.70;;
6251;SDS011;3159;52.414;9.784;2022-09-20T10:49:27;3.10;;;0.80;;
6251;SDS011;3159;52.414;9.784;2022-09-20T10:52:07;8.57;;;1.10;;
6251;SDS011;3159;52.414;9.784;2022-09-20T10:54:46;3.03;;;1.03;;
6251;SDS011;3159;52.414;9.784;2022-09-20T11:00:24;2.30;;;0.80;;
6251;SDS011;3159;52.414;9.784;2022-09-20T11:03:10;3.10;;;0.73;;
6251;SDS011;3159;52.414;9.784;2022-09-20T11:05:51;2.07;;;0.73;;
6251;SDS011;3159;52.414;9.784;2022-09-20T11:08:27;3.70;;;1.00;;
6251;SDS011;3159;52.414;9.784;2022-09-20T11:10:58;3.23;;;0.90;;
6251;SDS011;3159;52.414;9.784;2022-09-20T11:13:32;4.97;;;0.93;;
6251;SDS011;3159;52.414;9.784;2022-09-20T11:16:07;1.77;;;0.53;;
6251;SDS011;3159;52.414;9.784;2022-09-20T11:18:40;2.63;;;0.70;;
6251;SDS011;3159;52.414;9.784;2022-09-20T11:21:15;1.73;;;0.70;;
6251;SDS011;3159;52.414;9.784;2022-09-20T11:23:50;3.43;;;1.00;;
6251;SDS011;3159;52.414;9.784;2022-09-20T11:26:24;2.10;;;0.90;;
6251;SDS011;3159;52.414;9.784;2022-09-20T11:28:58;2.60;;;0.90;;
6251;SDS011;3159;52.414;9.784;2022-09-20T11:31:35;1.33;;;0.70;;
6251;SDS011;3159;52.414;9.784;2022-09-20T11:34:09;3.07;;;0.90;;
6251;SDS011;3159;52.414;9.784;2022-09-20T11:36:41;1.50;;;1.00;;
6251;SDS011;3159;52.414;9.784;2022-09-20T11:39:17;1.90;;;0.77;;
6251;SDS011;3159;52.414;9.784;2022-09-20T11:41:48;3.23;;;0.90;;
6251;SDS011;3159;52.414;9.784;2022-09-20T11:44:18;1.83;;;0.77;;
6251;SDS011;3159;52.414;9.784;2022-09-20T11:46:48;3.33;;;0.90;;
6251;SDS011;3159;52.414;9.784;2022-09-20T11:49:21;1.93;;;0.80;;
6251;SDS011;3159;52.414;9.784;2022-09-20T11:51:57;4.33;;;1.17;;
6251;SDS011;3159;52.414;9.784;2022-09-20T11:54:39;2.47;;;0.90;;
6251;SDS011;3159;52.414;9.784;2022-09-20T11:57:21;2.17;;;0.70;;
6251;SDS011;3159;52.414;9.784;2022-09-20T11:59:51;3.30;;;1.00;;
6251;SDS011;3159;52.414;9.784;2022-09-20T12:02:22;2.03;;;0.60;;
6251;SDS011;3159;52.414;9.784;2022-09-20T12:04:54;3.27;;;0.80;;
6251;SDS011;3159;52.414;9.784;2022-09-20T12:07:23;5.73;;;1.00;;
6251;SDS011;3159;52.414;9.784;2022-09-20T12:09:52;2.53;;;1.00;;
6251;SDS011;3159;52.414;9.784;2022-09-20T12:12:32;4.50;;;0.63;;
6251;SDS011;3159;52.414;9.784;2022-09-20T12:15:05;1.73;;;0.63;;
6251;SDS011;3159;52.414;9.784;2022-09-20T12:18:00;2.50;;;0.97;;
6251;SDS011;3159;52.414;9.784;2022-09-20T12:26:38;4.83;;;0.90;;
6251;SDS011;3159;52.414;9.784;2022-09-20T12:32:33;5.50;;;1.20;;
6251;SDS011;3159;52.414;9.784;2022-09-20T12:38:30;4.90;;;1.07;;
6251;SDS011;3159;52.414;9.784;2022-09-20T12:41:10;2.77;;;0.97;;
6251;SDS011;3159;52.414;9.784;2022-09-20T12:43:51;4.53;;;0.80;;
6251;SDS011;3159;52.414;9.784;2022-09-20T12:46:22;5.70;;;1.47;;
6251;SDS011;3159;52.414;9.784;2022-09-20T12:52:19;3.83;;;1.00;;
6251;SDS011;3159;52.414;9.784;2022-09-20T12:55:09;3.10;;;1.13;;
6251;SDS011;3159;52.414;9.784;2022-09-20T12:57:38;1.83;;;0.80;;
6251;SDS011;3159;52.414;9.784;2022-09-20T13:00:06;2.07;;;0.80;;
6251;SDS011;3159;52.414;9.784;2022-09-20T13:02:59;3.20;;;0.90;;
6251;SDS011;3159;52.414;9.784;2022-09-20T13:05:33;3.33;;;0.87;;
6251;SDS011;3159;52.414;9.784;2022-09-20T13:08:03;2.93;;;0.73;;
6251;SDS011;3159;52.414;9.784;2022-09-20T13:10:39;4.33;;;1.20;;
6251;SDS011;3159;52.414;9.784;2022-09-20T13:13:14;3.70;;;1.00;;
6251;SDS011;3159;52.414;9.784;2022-09-20T13:15:56;4.20;;;0.90;;
6251;SDS011;3159;52.414;9.784;2022-09-20T13:18:26;4.03;;;1.10;;
6251;SDS011;3159;52.414;9.784;2022-09-20T13:20:56;3.83;;;0.97;;
6251;SDS011;3159;52.414;9.784;2022-09-20T13:23:30;2.87;;;0.80;;
6251;SDS011;3159;52.414;9.784;2022-09-20T13:26:02;3.77;;;1.13;;
6251;SDS011;3159;52.414;9.784;2022-09-20T13:28:36;2.60;;;0.80;;
6251;SDS011;3159;52.414;9.784;2022-09-20T13:36:45;2.97;;;0.90;;
6251;SDS011;3159;52.414;9.784;2022-09-20T13:39:21;4.33;;;0.77;;
6251;SDS011;3159;52.414;9.784;2022-09-20T13:41:51;2.87;;;0.60;;
6251;SDS011;3159;52.414;9.784;2022-09-20T13:44:18;1.83;;;0.70;;
6251;SDS011;3159;52.414;9.784;2022-09-20T13:46:47;0.73;;;0.50;;
6251;SDS011;3159;52.414;9.784;2022-09-20T13:49:15;1.40;;;0.60;;
6251;SDS011;3159;52.414;9.784;2022-09-20T13:51:46;1.73;;;0.60;;
6251;SDS011;3159;52.414;9.784;2022-09-20T13:54:17;2.80;;;0.73;;
6251;SDS011;3159;52.414;9.784;2022-09-20T13:56:46;0.83;;;0.40;;
6251;SDS011;3159;52.414;9.784;2022-09-20T13:59:14;2.40;;;0.60;;
6251;SDS011;3159;52.414;9.784;2022-09-20T14:01:47;1.77;;;0.60;;
6251;SDS011;3159;52.414;9.784;2022-09-20T14:04:15;1.67;;;0.60;;
6251;SDS011;3159;52.414;9.784;2022-09-20T14:06:46;1.87;;;0.83;;
6251;SDS011;3159;52.414;9.784;2022-09-20T14:09:18;1.37;;;0.87;;
6251;SDS011;3159;52.414;9.784;2022-09-20T14:11:48;2.33;;;0.53;;
6251;SDS011;3159;52.414;9.784;2022-09-20T14:14:15;2.07;;;0.70;;
6251;SDS011;3159;52.414;9.784;2022-09-20T14:16:44;2.03;;;0.40;;
6251;SDS011;3159;52.414;9.784;2022-09-20T14:19:13;1.37;;;0.57;;
6251;SDS011;3159;52.414;9.784;2022-09-20T14:21:42;2.43;;;0.70;;
6251;SDS011;3159;52.414;9.784;2022-09-20T14:24:25;1.47;;;0.70;;
6251;SDS011;3159;52.414;9.784;2022-09-20T14:26:59;2.33;;;0.70;;
6251;SDS011;3159;52.414;9.784;2022-09-20T14:29:28;0.57;;;0.50;;
6251;SDS011;3159;52.414;9.784;2022-09-20T14:32:03;1.67;;;0.40;;
6251;SDS011;3159;52.414;9.784;2022-09-20T14:34:35;1.83;;;0.50;;
6251;SDS011;3159;52.414;9.784;2022-09-20T14:37:04;3.23;;;0.37;;
6251;SDS011;3159;52.414;9.784;2022-09-20T14:39:33;1.30;;;0.50;;
6251;SDS011;3159;52.414;9.784;2022-09-20T14:42:13;2.50;;;1.03;;
6251;SDS011;3159;52.414;9.784;2022-09-20T14:44:48;0.63;;;0.40;;
6251;SDS011;3159;52.414;9.784;2022-09-20T14:47:16;1.57;;;0.37;;
6251;SDS011;3159;52.414;9.784;2022-09-20T14:49:54;1.27;;;0.50;;
6251;SDS011;3159;52.414;9.784;2022-09-20T14:52:30;2.03;;;0.60;;
6251;SDS011;3159;52.414;9.784;2022-09-20T14:55:13;1.90;;;0.80;;
6251;SDS011;3159;52.414;9.784;2022-09-20T14:57:44;2.27;;;0.50;;
6251;SDS011;3159;52.414;9.784;2022-09-20T15:00:13;1.67;;;0.40;;
6251;SDS011;3159;52.414;9.784;2022-09-20T15:02:41;2.43;;;0.40;;
6251;SDS011;3159;52.414;9.784;2022-09-20T15:05:15;2.03;;;0.40;;
6251;SDS011;3159;52.414;9.784;2022-09-20T15:07:44;1.20;;;0.50;;
6251;SDS011;3159;52.414;9.784;2022-09-20T15:10:13;3.23;;;0.67;;
6251;SDS011;3159;52.414;9.784;2022-09-20T15:12:40;2.80;;;0.60;;
6251;SDS011;3159;52.414;9.784;2022-09-20T15:15:10;0.83;;;0.40;;
6251;SDS011;3159;52.414;9.784;2022-09-20T15:17:40;1.90;;;0.77;;
6251;SDS011;3159;52.414;9.784;2022-09-20T15:20:11;2.10;;;0.70;;
6251;SDS011;3159;52.414;9.784;2022-09-20T15:22:40;1.90;;;0.60;;
6251;SDS011;3159;52.414;9.784;2022-09-20T15:25:11;1.27;;;0.40;;
6251;SDS011;3159;52.414;9.784;2022-09-20T15:27:40;1.33;;;0.60;;
6251;SDS011;3159;52.414;9.784;2022-09-20T15:30:09;3.27;;;0.60;;
6251;SDS011;3159;52.414;9.784;2022-09-20T15:32:38;3.40;;;1.03;;
6251;SDS011;3159;52.414;9.784;2022-09-20T15:35:06;1.63;;;0.60;;
6251;SDS011;3159;52.414;9.784;2022-09-20T15:37:33;0.90;;;0.43;;
6251;SDS011;3159;52.414;9.784;2022-09-20T15:40:00;1.47;;;0.70;;
6251;SDS011;3159;52.414;9.784;2022-09-20T15:42:29;0.30;;;0.30;;
6251;SDS011;3159;52.414;9.784;2022-09-20T15:44:56;2.07;;;0.67;;
6251;SDS011;3159;52.414;9.784;2022-09-20T15:47:23;1.20;;;0.40;;
6251;SDS011;3159;52.414;9.784;2022-09-20T15:49:52;0.57;;;0.40;;
6251;SDS011;3159;52.414;9.784;2022-09-20T15:52:19;1.90;;;0.60;;
6251;SDS011;3159;52.414;9.784;2022-09-20T15:54:48;2.97;;;0.70;;
6251;SDS011;3159;52.414;9.784;2022-09-20T15:57:15;1.07;;;0.40;;
6251;SDS011;3159;52.414;9.784;2022-09-20T15:59:44;2.97;;;0.37;;
6251;SDS011;3159;52.414;9.784;2022-09-20T16:02:10;1.60;;;0.50;;
6251;SDS011;3159;52.414;9.784;2022-09-20T16:04:37;1.00;;;0.50;;
6251;SDS011;3159;52.414;9.784;2022-09-20T16:07:04;0.77;;;0.30;;
6251;SDS011;3159;52.414;9.784;2022-09-20T16:09:33;2.23;;;0.50;;
6251;SDS011;3159;52.414;9.784;2022-09-20T16:12:02;1.67;;;0.60;;
6251;SDS011;3159;52.414;9.784;2022-09-20T16:14:29;1.67;;;0.70;;
6251;SDS011;3159;52.414;9.784;2022-09-20T16:16:57;1.30;;;0.50;;
6251;SDS011;3159;52.414;9.784;2022-09-20T16:19:24;2.80;;;0.60;;
6251;SDS011;3159;52.414;9.784;2022-09-20T16:21:51;3.10;;;0.70;;
6251;SDS011;3159;52.414;9.784;2022-09-20T16:24:21;0.83;;;0.57;;
6251;SDS011;3159;52.414;9.784;2022-09-20T16:26:49;3.00;;;1.27;;
6251;SDS011;3159;52.414;9.784;2022-09-20T16:29:16;1.57;;;0.60;;
6251;SDS011;3159;52.414;9.784;2022-09-20T16:31:43;1.77;;;0.80;;
6251;SDS011;3159;52.414;9.784;2022-09-20T16:34:13;2.57;;;1.47;;
6251;SDS011;3159;52.414;9.784;2022-09-20T16:36:43;2.03;;;1.30;;
6251;SDS011;3159;52.414;9.784;2022-09-20T16:39:10;1.47;;;0.90;;
6251;SDS011;3159;52.414;9.784;2022-09-20T16:41:38;2.00;;;0.90;;
6251;SDS011;3159;52.414;9.784;2022-09-20T16:44:05;4.13;;;1.50;;
6251;SDS011;3159;52.414;9.784;2022-09-20T16:46:32;3.13;;;1.10;;
6251;SDS011;3159;52.414;9.784;2022-09-20T16:49:01;4.63;;;3.07;;
6251;SDS011;3159;52.414;9.784;2022-09-20T16:51:32;6.03;;;5.53;;